Terminal Aerodrome Forecast
Issued by NWS Austin/San Antonio, TX

Home | Current Version | Previous Version | Text Only | Print | Product List | Glossary On
Versions: 1 2 3 4 5 6 7 8 9 10 11 12 13 14 15 16 17 18 19 20
000
FTUS44 KEWX 222300
TAFAUS
TAF
KAUS 222331Z 2300/2406 17006KT P6SM BKN250
     FM230600 03005KT P6SM OVC025
     FM231200 36012KT P6SM OVC015
     FM231700 35015G25KT P6SM OVC025
     FM240000 33010G20KT P6SM BKN040=

USA.gov is the U.S. government's official web portal to all federal, state and local government web resources and services.